.
WxDataArchive / Data Records for 2006-08-25
2006-08-24 August 2006 2006-08-26

Data Records for Friday, 25 August 2006

Time	Temp	Chill	HIndex	Humid	Dewpt	 Wind 	HiWind	WindDir	Rain 	Barom 
-----	----	-----	------	-----	-----	------	------	-------	-----	----- 
00:00	65.6	65.6	65.6	87	61.6	0	0	---	0.00	29.881 
00:05	65.6	65.6	65.6	87	61.6	0	1	248	0.00	29.881 
00:10	65.8	65.8	65.8	85	61.2	0	1	248	0.00	29.881 
00:15	66.0	66.0	66.0	85	61.4	0	0	---	0.00	29.879 
00:20	65.8	65.8	65.8	86	61.5	0	0	---	0.00	29.879 
00:25	65.6	65.6	65.6	86	61.3	0	1	248	0.00	29.879 
00:30	65.8	65.8	65.8	86	61.5	0	1	248	0.00	29.886 
00:35	66.0	66.0	66.0	85	61.4	0	1	248	0.00	29.886 
00:40	66.0	66.0	66.0	85	61.4	0	1	248	0.00	29.886 
00:45	65.8	65.8	65.8	86	61.5	0	0	---	0.00	29.896 
00:50	65.6	65.6	65.6	87	61.6	0	0	---	0.00	29.896 
00:55	65.3	65.3	65.3	88	61.6	0	0	---	0.00	29.896 
01:00	65.2	65.2	65.2	88	61.6	0	0	---	0.00	29.901 
01:05	65.2	65.2	65.2	88	61.6	0	1	248	0.00	29.901 
01:10	65.2	65.2	65.2	87	61.2	0	1	248	0.00	29.901 
01:15	65.3	65.3	65.3	87	61.3	0	1	248	0.00	29.899 
01:20	65.2	65.2	65.2	88	61.6	0	0	---	0.00	29.899 
01:25	65.0	65.0	65.0	88	61.4	0	0	---	0.00	29.899 
01:30	65.0	65.0	65.0	88	61.4	0	1	248	0.00	29.898 
01:35	65.0	65.0	65.0	88	61.4	0	0	---	0.00	29.898 
01:40	65.0	65.0	65.0	88	61.4	0	0	---	0.00	29.898 
01:45	65.0	65.0	65.0	88	61.4	0	0	---	0.00	29.894 
01:50	64.8	64.8	64.8	88	61.2	0	0	---	0.00	29.894 
01:55	64.7	64.7	64.7	89	61.4	0	0	---	0.00	29.894 
02:00	64.5	64.5	64.5	89	61.2	0	0	---	0.00	29.892 
02:05	64.5	64.5	64.5	89	61.2	0	0	---	0.00	29.892 
02:10	64.7	64.7	64.7	89	61.4	0	0	---	0.00	29.892 
02:15	64.8	64.8	64.8	89	61.5	0	1	248	0.00	29.879 
02:20	65.0	65.0	65.0	88	61.4	0	0	---	0.00	29.879 
02:25	65.2	65.2	65.2	88	61.6	0	0	---	0.00	29.879 
02:30	65.2	65.2	65.2	88	61.6	0	0	---	0.00	29.877 
02:35	65.2	65.2	65.2	88	61.6	0	0	---	0.00	29.877 
02:40	65.2	65.2	65.2	88	61.6	0	0	---	0.00	29.877 
02:45	65.2	65.2	65.2	88	61.6	0	0	---	0.00	29.876 
02:50	65.0	65.0	65.0	89	61.7	0	0	---	0.00	29.876 
02:55	65.0	65.0	65.0	89	61.7	0	0	---	0.00	29.876 
03:00	65.0	65.0	65.0	89	61.7	0	0	---	0.00	29.878 
03:05	65.0	65.0	65.0	89	61.7	0	0	---	0.00	29.878 
03:10	64.8	64.8	64.8	89	61.5	0	0	---	0.00	29.878 
03:15	64.8	64.8	64.8	89	61.5	0	0	---	0.00	29.878 
03:20	64.8	64.8	64.8	89	61.5	0	0	---	0.00	29.878 
03:25	64.7	64.7	64.7	89	61.4	0	0	---	0.00	29.878 
03:30	64.7	64.7	64.7	89	61.4	0	0	---	0.00	29.879 
03:35	64.5	64.5	64.5	90	61.5	0	0	---	0.00	29.879 
03:40	64.5	64.5	64.5	90	61.5	0	0	---	0.00	29.879 
03:45	64.3	64.3	64.3	90	61.3	0	0	---	0.00	29.881 
03:50	64.3	64.3	64.3	90	61.3	0	0	---	0.00	29.881 
03:55	64.3	64.3	64.3	90	61.3	0	0	---	0.00	29.881 
04:00	64.3	64.3	64.3	90	61.3	0	0	---	0.00	29.878 
04:05	64.3	64.3	64.3	90	61.3	0	0	---	0.00	29.878 
04:10	64.3	64.3	64.3	91	61.6	0	0	---	0.00	29.878 
04:15	64.3	64.3	64.3	91	61.6	0	0	---	0.00	29.880 
04:20	64.3	64.3	64.3	91	61.6	0	0	---	0.00	29.880 
04:25	64.3	64.3	64.3	91	61.6	0	0	---	0.00	29.880 
04:30	64.3	64.3	64.3	91	61.6	0	0	---	0.00	29.881 
04:35	64.3	64.3	64.3	91	61.6	0	0	---	0.00	29.881 
04:40	64.3	64.3	64.3	91	61.6	0	0	---	0.00	29.881 
04:45	64.3	64.3	64.3	91	61.6	0	0	---	0.00	29.880 
04:50	64.2	64.2	64.2	91	61.5	0	0	---	0.00	29.880 
04:55	64.2	64.2	64.2	91	61.5	0	0	---	0.00	29.880 
05:00	64.2	64.2	64.2	91	61.5	0	0	---	0.00	29.878 
05:05	64.2	64.2	64.2	91	61.5	0	1	248	0.00	29.878 
05:10	64.3	64.3	64.3	91	61.6	0	1	248	0.00	29.878 
05:15	64.3	64.3	64.3	91	61.6	0	0	---	0.00	29.880 
05:20	64.3	64.3	64.3	91	61.6	0	0	---	0.00	29.880 
05:25	64.3	64.3	64.3	91	61.6	0	0	---	0.00	29.880 
05:30	64.2	64.2	64.2	91	61.5	0	0	---	0.00	29.880 
05:35	64.2	64.2	64.2	91	61.5	0	0	---	0.00	29.880 
05:40	64.2	64.2	64.2	91	61.5	0	0	---	0.00	29.880 
05:45	64.0	64.0	64.0	91	61.3	0	0	---	0.00	29.879 
05:50	64.0	64.0	64.0	91	61.3	0	0	---	0.00	29.879 
05:55	64.0	64.0	64.0	91	61.3	0	0	---	0.00	29.879 
06:00	64.0	64.0	64.0	92	61.6	0	0	---	0.00	29.881 
06:05	63.9	63.9	63.9	92	61.5	0	0	---	0.00	29.881 
06:10	63.9	63.9	63.9	92	61.5	0	0	---	0.00	29.881 
06:15	63.9	63.9	63.9	92	61.5	0	0	---	0.00	29.892 
06:20	63.9	63.9	63.9	92	61.5	0	0	---	0.00	29.892 
06:25	63.9	63.9	63.9	92	61.5	0	0	---	0.00	29.892 
06:30	63.7	63.7	63.7	92	61.3	0	0	---	0.00	29.899 
06:35	63.7	63.7	63.7	92	61.3	0	0	---	0.00	29.899 
06:40	63.7	63.7	63.7	92	61.3	0	0	---	0.00	29.899 
06:45	63.7	63.7	63.7	92	61.3	0	0	---	0.00	29.899 
06:50	63.7	63.7	63.7	92	61.3	0	0	---	0.00	29.899 
06:55	63.7	63.7	63.7	92	61.3	0	0	---	0.00	29.899 
07:00	63.5	63.5	63.5	93	61.4	0	0	---	0.00	29.899 
07:05	63.5	63.5	63.5	93	61.4	0	0	---	0.00	29.899 
07:10	63.4	63.4	63.4	93	61.3	0	0	---	0.00	29.899 
07:15	63.4	63.4	63.4	93	61.3	0	0	---	0.00	29.902 
07:20	63.4	63.4	63.4	93	61.3	0	0	---	0.00	29.902 
07:25	63.4	63.4	63.4	93	61.3	0	0	---	0.00	29.902 
07:30	63.4	63.4	63.4	93	61.3	0	0	---	0.00	29.896 
07:35	63.4	63.4	63.4	93	61.3	0	0	---	0.00	29.896 
07:40	63.4	63.4	63.4	93	61.3	0	0	---	0.00	29.896 
07:45	63.5	63.5	63.5	94	61.7	0	0	---	0.00	29.894 
07:50	63.5	63.5	63.5	94	61.7	0	0	---	0.00	29.894 
07:55	63.7	63.7	63.7	94	61.9	0	0	---	0.00	29.894 
08:00	63.9	63.9	63.9	94	62.1	0	0	---	0.00	29.897 
08:05	64.0	64.0	64.0	94	62.2	0	0	---	0.00	29.897 
08:10	64.2	64.2	64.2	94	62.4	0	0	---	0.00	29.897 
08:15	64.3	64.3	64.3	94	62.5	0	0	---	0.00	29.901 
08:20	64.5	64.5	64.5	94	62.7	0	0	---	0.00	29.901 
08:25	64.7	64.7	64.7	94	62.9	0	0	---	0.00	29.901 
08:30	64.8	64.8	64.8	93	62.7	0	0	---	0.00	29.895 
08:35	65.2	65.2	65.2	93	63.1	0	0	---	0.00	29.895 
08:40	65.5	65.5	65.5	93	63.4	0	0	---	0.00	29.895 
08:45	66.1	66.1	66.1	92	63.7	0	0	---	0.00	29.899 
08:50	67.3	67.3	67.3	91	64.6	0	1	248	0.00	29.899 
08:55	67.9	67.9	67.9	88	64.2	0	1	248	0.00	29.899 
09:00	68.8	68.8	68.8	85	64.1	0	2	248	0.00	29.896 
09:05	69.4	69.4	69.4	84	64.3	0	1	248	0.00	29.896 
09:10	70.1	70.1	70.1	83	64.7	0	1	248	0.00	29.896 
09:15	70.8	70.8	70.8	82	65.0	0	1	248	0.00	29.886 
09:20	71.5	71.5	71.5	80	65.0	0	3	248	0.00	29.886 
09:25	72.3	72.3	72.3	78	65.0	0	2	248	0.00	29.886 
09:30	73.0	73.0	73.0	77	65.3	1	2	248	0.00	29.881 
09:35	73.9	73.9	73.9	76	65.8	1	3	248	0.00	29.881 
09:40	74.4	74.4	74.4	74	65.6	1	4	248	0.00	29.881 
09:45	74.7	74.7	74.7	73	65.5	1	3	248	0.00	29.877 
09:50	74.9	74.9	74.9	73	65.6	0	3	248	0.00	29.877 
09:55	74.9	74.9	74.9	72	65.2	1	4	248	0.00	29.877 
10:00	74.9	74.9	74.9	72	65.2	1	2	270	0.00	29.878 
10:05	74.9	74.9	74.9	72	65.2	1	3	270	0.00	29.878 
10:10	75.3	75.3	76.8	72	65.6	1	2	270	0.00	29.878 
10:15	75.6	75.6	77.2	71	65.5	0	3	90	0.00	29.878 
10:20	76.0	76.0	77.5	72	66.3	1	2	45	0.00	29.878 
10:25	76.1	76.1	77.8	70	65.6	1	3	248	0.00	29.878 
10:30	76.3	76.3	78.0	69	65.4	1	3	248	0.00	29.877 
10:35	76.3	76.3	78.0	68	64.9	1	2	248	0.00	29.877 
10:40	76.3	76.3	78.0	68	64.9	1	3	248	0.00	29.877 
10:45	76.3	76.3	78.0	69	65.4	0	2	248	0.00	29.878 
10:50	76.5	76.5	78.2	69	65.6	0	1	248	0.00	29.878 
10:55	76.7	76.7	78.5	68	65.3	0	1	248	0.00	29.878 
11:00	76.7	76.7	78.4	69	65.7	0	1	248	0.00	29.881 
11:05	76.8	76.8	78.6	67	65.0	0	2	248	0.00	29.881 
11:10	76.8	76.8	78.6	66	64.6	1	2	248	0.00	29.881 
11:15	77.0	77.0	78.8	67	65.2	0	2	248	0.00	29.885 
11:20	77.4	77.4	79.2	65	64.7	1	2	248	0.00	29.885 
11:25	77.7	77.7	79.5	65	65.0	2	4	248	0.00	29.885 
11:30	78.3	78.3	80.1	62	64.2	2	4	248	0.00	29.880 
11:35	78.8	78.8	80.6	62	64.7	2	3	248	0.00	29.880 
11:40	79.2	79.2	81.0	61	64.6	1	4	225	0.00	29.880 
11:45	79.6	79.6	81.4	61	64.9	1	3	248	0.00	29.874 
11:50	79.6	79.6	81.3	59	64.0	1	4	248	0.00	29.874 
11:55	80.1	80.1	81.9	60	64.9	1	4	248	0.00	29.874 
12:00	80.7	80.7	82.4	58	64.5	2	5	248	0.00	29.858 
12:05	80.5	80.5	82.2	58	64.3	1	4	248	0.00	29.858 
12:10	80.7	80.7	82.3	57	64.0	2	6	248	0.00	29.858 
12:15	80.7	80.7	82.3	57	64.0	2	5	270	0.00	29.860 
12:20	81.2	81.2	82.7	56	64.0	2	5	248	0.00	29.860 
12:25	81.6	81.6	83.1	55	63.8	2	6	270	0.00	29.860 
12:30	81.2	81.2	82.6	55	63.5	2	5	270	0.00	29.860 
12:35	80.7	80.7	82.3	57	64.0	3	6	270	0.00	29.860 
12:40	80.9	80.9	82.4	56	63.7	2	4	270	0.00	29.860 
12:45	80.7	80.7	82.2	56	63.5	2	4	248	0.00	29.864 
12:50	80.5	80.5	82.2	58	64.3	2	5	248	0.00	29.864 
12:55	80.5	80.5	81.9	56	63.3	2	5	270	0.00	29.864 
13:00	81.1	81.1	82.6	56	63.9	2	5	248	0.00	29.861 
13:05	81.6	81.6	83.2	56	64.4	1	4	270	0.00	29.861 
13:10	82.0	82.0	83.6	55	64.2	1	5	248	0.00	29.861 
13:15	82.2	82.2	83.6	54	63.9	2	5	270	0.00	29.861 
13:20	82.8	82.8	85.0	57	66.0	2	4	338	0.00	29.861 
13:25	83.4	83.4	84.6	51	63.3	2	4	248	0.00	29.861 
13:30	83.8	83.8	84.9	50	63.1	3	7	248	0.00	29.860 
13:35	83.4	83.4	84.6	51	63.3	2	5	248	0.00	29.860 
13:40	83.2	83.2	84.3	51	63.2	2	4	270	0.00	29.860 
13:45	82.8	82.8	83.7	50	62.2	2	4	248	0.00	29.862 
13:50	82.4	82.4	83.5	52	63.0	2	5	248	0.00	29.862 
13:55	82.2	82.2	83.1	51	62.2	3	6	248	0.00	29.862 
14:00	82.2	82.2	83.1	51	62.2	2	5	248	0.00	29.861 
14:05	82.2	82.2	83.3	52	62.8	2	6	248	0.00	29.861 
14:10	82.2	82.2	83.5	53	63.3	1	5	248	0.00	29.861 
14:15	82.2	82.2	83.0	50	61.7	2	4	248	0.00	29.859 
14:20	82.0	82.0	82.9	51	62.1	2	4	248	0.00	29.859 
14:25	82.2	82.2	83.1	51	62.2	1	4	248	0.00	29.859 
14:30	82.2	82.2	83.3	52	62.8	2	5	248	0.00	29.861 
14:35	82.2	82.2	83.0	50	61.7	2	4	270	0.00	29.861 
14:40	82.6	82.6	83.4	50	62.0	2	5	248	0.00	29.861 
14:45	83.4	83.4	84.2	49	62.2	2	4	248	0.00	29.860 
14:50	84.3	84.3	84.7	46	61.2	2	9	248	0.00	29.860 
14:55	84.7	84.7	85.0	45	61.0	3	6	248	0.00	29.860 
15:00	84.7	84.7	85.6	48	62.8	2	11	270	0.00	29.853 
15:05	85.3	85.3	85.7	45	61.5	2	5	270	0.00	29.853 
15:10	85.3	85.3	85.2	43	60.2	3	6	248	0.00	29.853 
15:15	84.9	84.9	85.2	45	61.2	3	10	270	0.00	29.848 
15:20	84.9	84.9	85.8	48	63.0	2	6	248	0.00	29.848 
15:25	84.9	84.9	85.6	47	62.4	2	5	270	0.00	29.848 
15:30	84.7	84.7	85.6	48	62.8	3	9	270	0.00	29.844 
15:35	84.7	84.7	86.3	51	64.5	2	5	270	0.00	29.844 
15:40	84.5	84.5	85.8	50	63.8	2	6	248	0.00	29.844 
15:45	84.7	84.7	85.8	49	63.4	2	3	248	0.00	29.843 
15:50	84.7	84.7	85.6	48	62.8	2	5	248	0.00	29.843 
15:55	84.7	84.7	86.0	50	64.0	2	4	270	0.00	29.843 
16:00	84.5	84.5	85.8	50	63.8	2	4	248	0.00	29.842 
16:05	84.5	84.5	85.8	50	63.8	2	6	270	0.00	29.842 
16:10	84.3	84.3	85.3	49	63.0	2	4	248	0.00	29.842 
16:15	84.1	84.1	85.3	50	63.4	2	5	270	0.00	29.833 
16:20	83.8	83.8	85.1	51	63.7	1	4	68	0.00	29.833 
16:25	83.8	83.8	85.1	51	63.7	1	4	270	0.00	29.833 
16:30	83.8	83.8	85.1	51	63.7	1	4	45	0.00	29.830 
16:35	83.8	83.8	85.1	51	63.7	1	4	248	0.00	29.830 
16:40	83.8	83.8	85.3	52	64.3	1	5	248	0.00	29.830 
16:45	83.8	83.8	84.5	48	62.0	2	3	248	0.00	29.837 
16:50	83.6	83.6	84.4	49	62.4	2	3	248	0.00	29.837 
16:55	83.6	83.6	84.6	50	63.0	2	4	270	0.00	29.837 
17:00	83.4	83.4	84.6	51	63.3	2	4	248	0.00	29.848 
17:05	83.4	83.4	84.4	50	62.8	1	4	270	0.00	29.848 
17:10	83.6	83.6	84.6	50	63.0	1	3	270	0.00	29.848 
17:15	84.0	84.0	85.6	52	64.4	1	2	270	0.00	29.843 
17:20	84.1	84.1	85.3	50	63.4	1	4	248	0.00	29.843 
17:25	84.5	84.5	86.0	51	64.4	1	3	270	0.00	29.843 
17:30	84.5	84.5	85.8	50	63.8	1	3	270	0.00	29.846 
17:35	84.5	84.5	85.3	48	62.6	2	4	270	0.00	29.846 
17:40	84.5	84.5	85.3	48	62.6	1	3	248	0.00	29.846 
17:45	84.3	84.3	85.3	49	63.0	0	1	248	0.00	29.845 
17:50	84.0	84.0	85.3	51	63.9	0	3	248	0.00	29.845 
17:55	83.8	83.8	84.9	50	63.1	1	4	270	0.00	29.845 
18:00	83.6	83.6	84.4	49	62.4	1	3	270	0.00	29.854 
18:05	83.4	83.4	84.4	50	62.8	1	3	248	0.00	29.854 
18:10	83.2	83.2	83.8	48	61.4	1	4	248	0.00	29.854 
18:15	83.2	83.2	83.8	48	61.4	1	3	248	0.00	29.863 
18:20	83.0	83.0	83.7	49	61.8	2	4	248	0.00	29.863 
18:25	82.8	82.8	83.7	50	62.2	0	2	270	0.00	29.863 
18:30	82.6	82.6	83.6	51	62.6	1	3	270	0.00	29.868 
18:35	82.6	82.6	83.8	52	63.2	1	3	248	0.00	29.868 
18:40	82.6	82.6	83.8	52	63.2	1	4	248	0.00	29.868 
18:45	82.4	82.4	83.5	52	63.0	1	3	248	0.00	29.869 
18:50	82.4	82.4	83.5	52	63.0	1	2	248	0.00	29.869 
18:55	82.4	82.4	83.5	52	63.0	1	3	248	0.00	29.869 
19:00	82.2	82.2	83.6	54	63.9	0	1	248	0.00	29.862 
19:05	82.0	82.0	83.2	53	63.2	0	2	248	0.00	29.862 
19:10	81.8	81.8	83.2	54	63.5	0	1	248	0.00	29.862 
19:15	81.6	81.6	82.9	54	63.3	0	1	248	0.00	29.852 
19:20	81.4	81.4	82.8	55	63.7	0	1	248	0.00	29.852 
19:25	81.2	81.2	82.7	56	64.0	0	1	248	0.00	29.852 
19:30	81.1	81.1	82.8	57	64.4	0	1	248	0.00	29.861 
19:35	80.9	80.9	82.5	57	64.2	0	1	248	0.00	29.861 
19:40	80.7	80.7	82.4	58	64.5	0	1	248	0.00	29.861 
19:45	80.5	80.5	82.2	58	64.3	0	1	248	0.00	29.863 
19:50	80.3	80.3	81.9	58	64.2	0	0	---	0.00	29.863 
19:55	79.9	79.9	81.6	59	64.3	0	0	---	0.00	29.863 
20:00	79.6	79.6	81.3	60	64.5	0	0	---	0.00	29.869 
20:05	79.4	79.4	81.2	61	64.8	0	0	---	0.00	29.869 
20:10	79.0	79.0	80.8	62	64.8	0	0	---	0.00	29.869 
20:15	78.6	78.6	80.4	62	64.5	0	0	---	0.00	29.864 
20:20	78.1	78.1	79.9	64	64.9	0	0	---	0.00	29.864 
20:25	77.6	77.6	79.4	65	64.9	0	0	---	0.00	29.864 
20:30	77.0	77.0	78.8	66	64.8	0	0	---	0.00	29.857 
20:35	76.5	76.5	78.3	67	64.7	0	0	---	0.00	29.857 
20:40	76.1	76.1	77.8	68	64.8	0	0	---	0.00	29.857 
20:45	75.8	75.8	77.6	68	64.5	0	0	---	0.00	29.862 
20:50	75.6	75.6	77.4	68	64.3	0	0	---	0.00	29.862 
20:55	75.4	75.4	77.1	69	64.5	0	0	---	0.00	29.862 
21:00	75.3	75.3	77.0	69	64.4	0	0	---	0.00	29.865 
21:05	75.1	75.1	76.8	70	64.6	0	0	---	0.00	29.865 
21:10	74.9	74.9	74.9	71	64.8	0	0	---	0.00	29.865 
21:15	74.6	74.6	74.6	71	64.6	0	0	---	0.00	29.860 
21:20	74.6	74.6	74.6	72	65.0	0	0	---	0.00	29.860 
21:25	74.4	74.4	74.4	72	64.8	0	0	---	0.00	29.860 
21:30	74.2	74.2	74.2	73	65.0	0	0	---	0.00	29.861 
21:35	74.2	74.2	74.2	73	65.0	0	0	---	0.00	29.861 
21:40	74.0	74.0	74.0	74	65.2	0	0	---	0.00	29.861 
21:45	73.9	73.9	73.9	74	65.1	0	0	---	0.00	29.863 
21:50	73.7	73.7	73.7	75	65.3	0	0	---	0.00	29.863 
21:55	73.5	73.5	73.5	75	65.1	0	0	---	0.00	29.863 
22:00	73.3	73.3	73.3	75	64.9	0	0	---	0.00	29.870 
22:05	73.3	73.3	73.3	76	65.3	0	0	---	0.00	29.870 
22:10	73.2	73.2	73.2	76	65.2	0	0	---	0.00	29.870 
22:15	73.2	73.2	73.2	77	65.5	0	0	---	0.00	29.870 
22:20	73.0	73.0	73.0	77	65.3	0	0	---	0.00	29.870 
22:25	72.8	72.8	72.8	77	65.2	0	0	---	0.00	29.870 
22:30	72.7	72.7	72.7	77	65.1	0	0	---	0.00	29.873 
22:35	72.7	72.7	72.7	78	65.4	0	0	---	0.00	29.873 
22:40	72.7	72.7	72.7	77	65.1	0	0	---	0.00	29.873 
22:45	72.7	72.7	72.7	77	65.1	0	0	---	0.00	29.871 
22:50	72.8	72.8	72.8	77	65.2	0	1	248	0.00	29.871 
22:55	72.8	72.8	72.8	77	65.2	0	1	248	0.00	29.871 
23:00	72.8	72.8	72.8	77	65.2	0	0	---	0.00	29.873 
23:05	72.7	72.7	72.7	77	65.1	0	1	248	0.00	29.873 
23:10	72.5	72.5	72.5	78	65.2	0	0	---	0.00	29.873 
23:15	72.3	72.3	72.3	78	65.0	0	0	---	0.00	29.876 
23:20	72.1	72.1	72.1	78	64.8	0	0	---	0.00	29.876 
23:25	72.0	72.0	72.0	79	65.1	0	0	---	0.00	29.876 
23:30	71.8	71.8	71.8	80	65.3	0	0	---	0.00	29.874 
23:35	71.5	71.5	71.5	80	65.0	0	0	---	0.00	29.874 
23:40	71.3	71.3	71.3	81	65.2	0	0	---	0.00	29.874 
23:45	71.1	71.1	71.1	81	65.0	0	0	---	0.00	29.877 
23:50	70.9	70.9	70.9	82	65.1	0	0	---	0.00	29.877 
23:55	70.6	70.6	70.6	83	65.2	0	1	248	0.00	29.877 

CoCoRaHS
IN-AL-39
A2 Web Hosting
Creative Commons License
GoDaddy
Look for:

loaded 2017-10-17 00:24:43 • last modified 2010-11-18 10:43:29
Privacy PolicyDisclaimer
• wx.awcolley.com is powered by PmWiki v.2002016 •
• all content (unless otherwise noted) © 2017 A W Colley